Time;durP1;ratioP1;P1;durP2;ratioP2;P2;SDS_P1;SDS_P2;PMS_P1;PMS_P2;Temp;Humidity;BMP_temperature;BMP_pressure;BME280_temperature;BME280_humidity;BME280_pressure;Samples;Min_cycle;Max_cycle;Signal;HPM_P1;HPM_P2
2022/10/22 00:00:26;;;;;;;8.20;7.40;;;;;;;;;;6114398;23;20041;-76
2022/10/22 00:02:52;;;;;;;10.77;7.85;;;;;;;;;;6116311;23;20016;-77
2022/10/22 00:05:18;;;;;;;10.05;8.13;;;;;;;;;;6116343;23;20010;-77
2022/10/22 00:07:44;;;;;;;8.75;7.85;;;;;;;;;;6116917;23;20108;-78
2022/10/22 00:10:10;;;;;;;8.60;7.68;;;;;;;;;;6119126;23;20002;-77
2022/10/22 00:12:37;;;;;;;7.60;6.85;;;;;;;;;;6120211;23;20085;-77
2022/10/22 00:15:03;;;;;;;8.10;7.05;;;;;;;;;;6117361;23;20024;-77
2022/10/22 00:17:30;;;;;;;9.43;7.90;;;;;;;;;;6120058;23;19998;-77
2022/10/22 00:19:56;;;;;;;11.55;7.82;;;;;;;;;;6118944;23;20531;-77
2022/10/22 00:22:22;;;;;;;9.10;7.63;;;;;;;;;;6116088;23;20666;-78
2022/10/22 00:24:48;;;;;;;8.25;7.45;;;;;;;;;;6119134;23;20072;-77
2022/10/22 00:27:14;;;;;;;9.07;7.63;;;;;;;;;;6118284;23;20325;-79
2022/10/22 00:29:40;;;;;;;11.98;7.75;;;;;;;;;;6119676;23;20633;-77
2022/10/22 00:32:06;;;;;;;10.68;7.43;;;;;;;;;;6119355;23;20093;-78
2022/10/22 00:34:33;;;;;;;9.75;6.90;;;;;;;;;;6117450;23;20375;-78
2022/10/22 00:36:59;;;;;;;8.85;7.03;;;;;;;;;;6119761;23;20025;-76
2022/10/22 00:39:26;;;;;;;12.23;7.15;;;;;;;;;;6118862;23;20077;-78
2022/10/22 00:41:53;;;;;;;9.10;7.20;;;;;;;;;;6118936;23;20013;-77
2022/10/22 00:44:38;;;;;;;11.18;8.55;;;;;;;;;;6119413;23;20021;-77
2022/10/22 00:47:04;;;;;;;12.05;8.13;;;;;;;;;;6117492;23;20002;-78
2022/10/22 00:49:30;;;;;;;10.60;8.35;;;;;;;;;;6119493;23;20088;-78
2022/10/22 00:51:56;;;;;;;12.70;8.50;;;;;;;;;;6119095;23;19998;-76
2022/10/22 00:54:22;;;;;;;9.80;8.40;;;;;;;;;;6118087;23;20068;-78
2022/10/22 00:56:48;;;;;;;10.13;8.40;;;;;;;;;;6119416;23;20002;-77
2022/10/22 00:59:15;;;;;;;9.30;7.05;;;;;;;;;;6099208;23;20022;-78
2022/10/22 01:01:42;;;;;;;11.30;7.15;;;;;;;;;;6119660;23;20077;-77
2022/10/22 01:04:08;;;;;;;7.47;6.65;;;;;;;;;;6119210;23;20057;-77
2022/10/22 01:06:34;;;;;;;9.60;6.78;;;;;;;;;;6117349;23;20036;-77
2022/10/22 01:09:13;;;;;;;7.45;6.03;;;;;;;;;;6118980;23;20081;-77
2022/10/22 01:11:42;;;;;;;8.07;5.63;;;;;;;;;;6119407;23;20546;-77
2022/10/22 01:14:08;;;;;;;7.95;6.10;;;;;;;;;;6118681;23;20014;-78
2022/10/22 01:16:36;;;;;;;7.30;5.72;;;;;;;;;;6118636;23;20061;-77
2022/10/22 01:19:20;;;;;;;9.48;6.20;;;;;;;;;;6119027;23;20002;-78
2022/10/22 01:21:50;;;;;;;8.40;5.75;;;;;;;;;;6117541;23;20727;-77
2022/10/22 01:24:40;;;;;;;6.10;5.50;;;;;;;;;;6118814;23;20008;-77
2022/10/22 01:27:15;;;;;;;7.40;6.18;;;;;;;;;;6119069;23;20006;-78
2022/10/22 01:30:01;;;;;;;6.57;5.55;;;;;;;;;;6115576;23;20002;-77
2022/10/22 01:32:29;;;;;;;7.25;5.75;;;;;;;;;;6111255;23;20041;-78
2022/10/22 01:35:01;;;;;;;7.82;5.47;;;;;;;;;;6111533;23;20021;-77
2022/10/22 01:37:31;;;;;;;8.93;5.78;;;;;;;;;;6112732;23;20652;-78
2022/10/22 01:39:58;;;;;;;6.70;5.25;;;;;;;;;;6113075;23;20592;-77
2022/10/22 01:42:25;;;;;;;7.40;5.45;;;;;;;;;;6113072;23;20702;-78
2022/10/22 01:44:51;;;;;;;6.70;5.32;;;;;;;;;;6110370;23;20033;-77
2022/10/22 01:47:23;;;;;;;8.20;5.93;;;;;;;;;;6111246;23;20088;-78
2022/10/22 01:49:49;;;;;;;7.35;5.80;;;;;;;;;;6113263;23;20025;-78
2022/10/22 01:52:27;;;;;;;9.30;6.55;;;;;;;;;;6112922;23;20025;-78
2022/10/22 01:55:02;;;;;;;8.07;6.00;;;;;;;;;;6111071;23;20342;-77
2022/10/22 01:57:28;;;;;;;12.15;6.53;;;;;;;;;;6113171;23;20002;-78
2022/10/22 02:00:01;;;;;;;9.90;6.28;;;;;;;;;;6110369;23;20017;-78
2022/10/22 02:02:27;;;;;;;7.78;6.57;;;;;;;;;;6086856;23;20021;-77
2022/10/22 02:04:57;;;;;;;6.55;5.82;;;;;;;;;;6113361;23;20031;-78
2022/10/22 02:07:25;;;;;;;8.15;5.38;;;;;;;;;;6110703;23;19998;-77
2022/10/22 02:09:52;;;;;;;9.77;5.80;;;;;;;;;;6112531;23;20037;-77
2022/10/22 02:12:21;;;;;;;7.88;6.22;;;;;;;;;;6112660;23;20014;-77
2022/10/22 02:14:47;;;;;;;9.45;7.00;;;;;;;;;;6112037;23;20014;-77
2022/10/22 02:17:16;;;;;;;12.85;6.25;;;;;;;;;;6111103;23;20435;-77
2022/10/22 02:20:00;;;;;;;8.18;6.57;;;;;;;;;;6112326;23;20010;-78
2022/10/22 02:22:27;;;;;;;6.97;6.18;;;;;;;;;;6112413;23;20427;-77
2022/10/22 02:24:53;;;;;;;6.82;5.90;;;;;;;;;;6112600;23;20050;-77
2022/10/22 02:27:32;;;;;;;6.53;5.88;;;;;;;;;;6086880;23;20018;-77
2022/10/22 02:30:06;;;;;;;7.03;6.32;;;;;;;;;;6111378;23;20077;-77
2022/10/22 02:32:37;;;;;;;8.40;6.85;;;;;;;;;;6112675;23;20391;-77
2022/10/22 02:35:04;;;;;;;8.68;6.97;;;;;;;;;;6112202;23;20454;-77
2022/10/22 02:37:31;;;;;;;8.88;6.85;;;;;;;;;;6112841;23;19998;-77
2022/10/22 02:39:57;;;;;;;8.98;6.65;;;;;;;;;;6112861;23;20013;-77
2022/10/22 02:42:24;;;;;;;9.18;6.63;;;;;;;;;;6110985;23;20067;-77
2022/10/22 02:44:51;;;;;;;8.52;6.60;;;;;;;;;;6109078;23;20076;-77
2022/10/22 02:47:17;;;;;;;8.82;6.85;;;;;;;;;;6112531;23;20400;-78
2022/10/22 02:49:43;;;;;;;8.50;6.93;;;;;;;;;;6112471;23;20017;-77
2022/10/22 02:52:10;;;;;;;7.97;6.55;;;;;;;;;;6110043;23;20010;-78
2022/10/22 02:54:36;;;;;;;9.10;6.95;;;;;;;;;;6113420;23;20017;-77
2022/10/22 02:57:02;;;;;;;9.10;6.40;;;;;;;;;;6114248;23;20033;-77
2022/10/22 02:59:29;;;;;;;7.40;6.28;;;;;;;;;;6099617;23;20026;-78
2022/10/22 03:01:55;;;;;;;7.72;6.60;;;;;;;;;;6112703;23;20065;-77
2022/10/22 03:04:21;;;;;;;8.85;6.88;;;;;;;;;;6113522;23;20017;-78
2022/10/22 03:06:48;;;;;;;7.05;6.35;;;;;;;;;;6114669;23;20017;-78
2022/10/22 03:09:14;;;;;;;9.00;6.60;;;;;;;;;;6113842;23;20005;-78
2022/10/22 03:11:40;;;;;;;8.32;7.13;;;;;;;;;;6114132;23;19994;-77
2022/10/22 03:14:06;;;;;;;7.13;6.40;;;;;;;;;;6112752;23;20013;-77
2022/10/22 03:16:32;;;;;;;7.28;6.53;;;;;;;;;;6114307;23;20006;-77
2022/10/22 03:19:00;;;;;;;7.88;6.80;;;;;;;;;;6111191;23;20010;-78
2022/10/22 03:21:33;;;;;;;7.00;6.30;;;;;;;;;;6111192;23;20009;-78
2022/10/22 03:24:01;;;;;;;7.53;6.57;;;;;;;;;;6111128;23;20073;-77
2022/10/22 03:26:28;;;;;;;7.05;6.35;;;;;;;;;;6109509;23;20010;-77
2022/10/22 03:28:54;;;;;;;8.75;6.70;;;;;;;;;;6111588;23;20752;-77
2022/10/22 03:31:20;;;;;;;8.10;6.30;;;;;;;;;;6110876;23;20010;-77
2022/10/22 03:33:47;;;;;;;7.60;6.25;;;;;;;;;;6111221;23;20013;-77
2022/10/22 03:36:13;;;;;;;12.95;6.53;;;;;;;;;;6111572;23;20077;-78
2022/10/22 03:38:40;;;;;;;5.90;5.30;;;;;;;;;;6109602;23;20006;-77
2022/10/22 03:41:06;;;;;;;11.05;6.32;;;;;;;;;;6111241;23;20006;-76
2022/10/22 03:43:33;;;;;;;7.05;6.40;;;;;;;;;;6108126;23;20004;-77
2022/10/22 03:46:00;;;;;;;8.02;6.68;;;;;;;;;;6111498;23;20012;-77
2022/10/22 03:48:26;;;;;;;9.93;6.60;;;;;;;;;;6110780;23;20069;-78
2022/10/22 03:50:52;;;;;;;8.73;6.25;;;;;;;;;;6109668;23;20458;-77
2022/10/22 03:53:18;;;;;;;6.88;6.18;;;;;;;;;;6110735;23;20002;-77
2022/10/22 03:55:44;;;;;;;7.78;6.97;;;;;;;;;;6110593;23;20053;-78
2022/10/22 03:58:11;;;;;;;9.30;6.95;;;;;;;;;;6111473;23;19998;-78
2022/10/22 04:00:37;;;;;;;8.43;6.55;;;;;;;;;;6110414;23;20018;-78
2022/10/22 04:03:04;;;;;;;7.63;6.47;;;;;;;;;;6110543;23;20018;-77
2022/10/22 04:05:31;;;;;;;8.65;6.55;;;;;;;;;;6109254;23;20396;-77
2022/10/22 04:07:57;;;;;;;10.68;7.03;;;;;;;;;;6111295;23;20002;-77
2022/10/22 04:10:24;;;;;;;7.30;6.10;;;;;;;;;;6110785;23;20010;-78
2022/10/22 04:12:50;;;;;;;8.68;6.78;;;;;;;;;;6109177;23;20004;-77
2022/10/22 04:15:16;;;;;;;7.38;6.03;;;;;;;;;;6110548;23;20076;-78
2022/10/22 04:17:42;;;;;;;9.82;6.65;;;;;;;;;;6111052;23;20585;-78
2022/10/22 04:20:08;;;;;;;9.68;6.63;;;;;;;;;;6110286;23;19998;-78
2022/10/22 04:22:35;;;;;;;9.32;6.82;;;;;;;;;;6110827;23;20006;-77
2022/10/22 04:25:02;;;;;;;9.40;6.93;;;;;;;;;;6109910;23;20006;-76
2022/10/22 04:27:31;;;;;;;8.88;6.95;;;;;;;;;;6108166;23;20005;-76
2022/10/22 04:29:57;;;;;;;7.50;6.57;;;;;;;;;;6110231;23;20439;-78
2022/10/22 04:32:24;;;;;;;7.30;6.45;;;;;;;;;;6110217;23;20048;-78
2022/10/22 04:34:50;;;;;;;9.40;6.55;;;;;;;;;;6109984;23;20014;-78
2022/10/22 04:37:17;;;;;;;9.70;6.38;;;;;;;;;;6110239;23;20005;-79
2022/10/22 04:39:43;;;;;;;7.60;6.60;;;;;;;;;;6110280;23;20487;-78
2022/10/22 04:42:09;;;;;;;7.40;6.63;;;;;;;;;;6109065;23;20005;-79
2022/10/22 04:44:35;;;;;;;8.20;6.53;;;;;;;;;;6108016;23;20012;-78
2022/10/22 04:47:01;;;;;;;6.97;6.28;;;;;;;;;;6110585;23;19998;-77
2022/10/22 04:49:27;;;;;;;8.63;6.53;;;;;;;;;;6110136;23;20010;-76
2022/10/22 04:51:54;;;;;;;10.55;6.93;;;;;;;;;;6110065;23;20002;-77
2022/10/22 04:54:20;;;;;;;8.15;6.97;;;;;;;;;;6109118;23;20018;-79
2022/10/22 04:56:46;;;;;;;8.82;6.57;;;;;;;;;;6109805;23;20001;-78
2022/10/22 04:59:12;;;;;;;7.47;6.32;;;;;;;;;;6110078;23;20021;-76
2022/10/22 05:01:40;;;;;;;7.53;6.72;;;;;;;;;;6109883;23;20037;-77
2022/10/22 05:04:08;;;;;;;8.68;6.30;;;;;;;;;;6109942;23;20014;-78
2022/10/22 05:06:34;;;;;;;9.80;6.50;;;;;;;;;;6108150;23;20002;-76
2022/10/22 05:09:04;;;;;;;7.55;6.38;;;;;;;;;;6109541;23;20001;-76
2022/10/22 05:11:33;;;;;;;8.15;6.63;;;;;;;;;;6110168;23;20085;-77
2022/10/22 05:13:59;;;;;;;9.65;6.45;;;;;;;;;;6110507;23;20353;-79
2022/10/22 05:16:26;;;;;;;12.05;7.32;;;;;;;;;;6109885;23;20672;-78
2022/10/22 05:18:52;;;;;;;7.20;6.30;;;;;;;;;;6108314;23;20032;-78
2022/10/22 05:21:19;;;;;;;9.95;6.55;;;;;;;;;;6110221;23;20043;-78
2022/10/22 05:23:47;;;;;;;10.15;6.88;;;;;;;;;;6109868;23;20045;-79
2022/10/22 05:26:14;;;;;;;9.07;6.43;;;;;;;;;;6110079;23;20012;-78
2022/10/22 05:28:40;;;;;;;8.13;6.72;;;;;;;;;;6108053;23;20126;-78
2022/10/22 05:31:07;;;;;;;8.07;6.50;;;;;;;;;;6110072;23;20038;-77
2022/10/22 05:33:34;;;;;;;12.50;5.97;;;;;;;;;;6110761;23;20017;-78
2022/10/22 05:36:01;;;;;;;9.85;6.55;;;;;;;;;;6109858;23;20009;-78
2022/10/22 05:38:27;;;;;;;8.55;6.28;;;;;;;;;;6110112;23;20072;-78
2022/10/22 05:41:03;;;;;;;7.88;6.15;;;;;;;;;;6108065;23;20001;-78
2022/10/22 05:43:30;;;;;;;7.55;5.75;;;;;;;;;;6107854;23;20012;-77
2022/10/22 05:45:56;;;;;;;8.02;5.72;;;;;;;;;;6109908;23;19998;-76
2022/10/22 05:48:22;;;;;;;6.28;5.22;;;;;;;;;;6110047;23;20056;-78
2022/10/22 05:50:49;;;;;;;7.68;5.10;;;;;;;;;;6108432;23;20006;-76
2022/10/22 05:53:18;;;;;;;7.53;5.45;;;;;;;;;;6109026;23;20009;-78
2022/10/22 05:55:44;;;;;;;15.93;6.25;;;;;;;;;;6109054;23;20059;-78
2022/10/22 05:58:11;;;;;;;9.93;6.30;;;;;;;;;;6109989;23;20461;-78
2022/10/22 06:00:38;;;;;;;7.05;5.85;;;;;;;;;;6106863;23;20511;-78
2022/10/22 06:03:04;;;;;;;7.10;5.90;;;;;;;;;;6109624;23;20006;-78
2022/10/22 06:05:30;;;;;;;7.25;6.25;;;;;;;;;;6109846;23;20581;-78
2022/10/22 06:07:57;;;;;;;7.05;6.32;;;;;;;;;;6109802;23;20434;-78
2022/10/22 06:10:23;;;;;;;9.93;7.10;;;;;;;;;;6109327;23;20070;-78
2022/10/22 06:12:49;;;;;;;8.85;6.95;;;;;;;;;;6107537;23;20009;-78
2022/10/22 06:15:17;;;;;;;7.68;6.88;;;;;;;;;;6109006;23;20064;-79
2022/10/22 06:17:47;;;;;;;11.68;7.75;;;;;;;;;;6109886;23;20002;-79
2022/10/22 06:20:13;;;;;;;12.98;7.40;;;;;;;;;;6084259;23;20017;-79
2022/10/22 06:22:39;;;;;;;13.88;7.40;;;;;;;;;;6109789;23;20006;-78
2022/10/22 06:25:07;;;;;;;10.77;6.90;;;;;;;;;;6109203;23;20033;-78
2022/10/22 06:27:33;;;;;;;9.07;7.25;;;;;;;;;;6107848;23;20064;-78
2022/10/22 06:30:00;;;;;;;8.30;7.28;;;;;;;;;;6111390;23;20350;-77
2022/10/22 06:32:26;;;;;;;10.32;7.40;;;;;;;;;;6112458;23;20012;-78
2022/10/22 06:34:52;;;;;;;8.07;6.80;;;;;;;;;;6109776;23;20096;-78
2022/10/22 06:37:18;;;;;;;12.25;7.63;;;;;;;;;;6110977;23;20028;-78
2022/10/22 06:39:44;;;;;;;9.02;7.88;;;;;;;;;;6111359;23;20076;-77
2022/10/22 06:42:10;;;;;;;10.00;7.40;;;;;;;;;;6111622;23;20039;-76
2022/10/22 06:44:36;;;;;;;8.07;7.13;;;;;;;;;;6108130;23;20183;-83
2022/10/22 06:47:03;;;;;;;9.38;7.30;;;;;;;;;;6109465;23;20006;-80
2022/10/22 06:49:29;;;;;;;10.52;7.43;;;;;;;;;;6111984;23;20010;-80
2022/10/22 06:51:55;;;;;;;14.75;10.60;;;;;;;;;;6085342;23;20010;-79
2022/10/22 06:54:22;;;;;;;13.25;10.23;;;;;;;;;;6111243;23;20010;-78
2022/10/22 06:56:48;;;;;;;27.60;14.98;;;;;;;;;;6109765;23;20108;-80
2022/10/22 06:59:14;;;;;;;27.63;15.18;;;;;;;;;;6110818;23;20018;-79
2022/10/22 07:01:41;;;;;;;26.00;15.07;;;;;;;;;;6111049;23;20096;-79
2022/10/22 07:04:07;;;;;;;30.45;20.63;;;;;;;;;;6109009;23;20006;-80
2022/10/22 07:06:34;;;;;;;34.22;21.13;;;;;;;;;;6108843;23;20009;-79
2022/10/22 07:09:00;;;;;;;38.25;23.00;;;;;;;;;;6109152;23;20010;-80
2022/10/22 07:11:28;;;;;;;32.40;21.50;;;;;;;;;;6110292;23;20002;-79
2022/10/22 07:13:55;;;;;;;37.17;25.33;;;;;;;;;;6110423;23;20084;-79
2022/10/22 07:16:21;;;;;;;80.22;47.83;;;;;;;;;;6108737;23;20508;-79
2022/10/22 07:18:48;;;;;;;71.20;43.75;;;;;;;;;;6111566;23;20033;-80
2022/10/22 07:21:16;;;;;;;49.95;33.17;;;;;;;;;;6110827;23;20037;-79
2022/10/22 07:23:42;;;;;;;49.97;32.35;;;;;;;;;;6111768;23;20002;-79
2022/10/22 07:26:09;;;;;;;44.53;27.98;;;;;;;;;;6109203;23;20010;-80
2022/10/22 07:28:38;;;;;;;57.92;36.58;;;;;;;;;;6111006;23;20006;-80
2022/10/22 07:31:05;;;;;;;65.95;39.35;;;;;;;;;;6110699;23;20021;-82
2022/10/22 07:33:31;;;;;;;106.78;61.65;;;;;;;;;;6111380;23;20002;-80
2022/10/22 07:39:02;;;;;;;77.72;47.22;;;;;;;;;;6065012;23;20010;-79
2022/10/22 07:41:35;;;;;;;51.63;34.13;;;;;;;;;;6087407;23;20483;-84
2022/10/22 07:44:33;;;;;;;37.20;22.55;;;;;;;;;;6078787;23;20010;-83
2022/10/22 07:47:31;;;;;;;;;;;;;;;;;;;;;
2022/10/22 07:50:38;;;;;;;13.30;10.60;;;;;;;;;;6112931;23;20423;-82
2022/10/22 07:53:03;;;;;;;16.42;11.18;;;;;;;;;;6111244;23;20006;-80
2022/10/22 07:55:30;;;;;;;17.80;12.18;;;;;;;;;;6088499;23;20069;-82
2022/10/22 07:57:56;;;;;;;19.15;11.00;;;;;;;;;;6086022;23;20006;-81
2022/10/22 08:00:22;;;;;;;16.88;10.38;;;;;;;;;;6110515;23;20073;-78
2022/10/22 08:02:48;;;;;;;14.50;9.77;;;;;;;;;;6109098;23;20065;-79
2022/10/22 08:05:15;;;;;;;16.70;10.50;;;;;;;;;;6110102;23;20030;-79
2022/10/22 08:07:41;;;;;;;13.88;9.10;;;;;;;;;;6109540;23;20006;-79
2022/10/22 08:10:08;;;;;;;13.35;9.50;;;;;;;;;;6110440;23;20010;-79
2022/10/22 08:12:34;;;;;;;13.88;10.23;;;;;;;;;;6110849;23;20451;-79
2022/10/22 08:15:00;;;;;;;16.98;8.88;;;;;;;;;;6110120;23;20024;-79
2022/10/22 08:17:27;;;;;;;12.85;9.63;;;;;;;;;;6108621;23;20450;-79
2022/10/22 08:19:53;;;;;;;14.35;11.07;;;;;;;;;;6110439;23;20089;-79
2022/10/22 08:22:19;;;;;;;14.18;9.38;;;;;;;;;;6110705;23;20586;-78
2022/10/22 08:24:45;;;;;;;12.52;9.70;;;;;;;;;;6110654;23;20010;-80
2022/10/22 08:27:12;;;;;;;11.50;8.52;;;;;;;;;;6110661;23;20006;-80
2022/10/22 08:29:38;;;;;;;15.00;9.10;;;;;;;;;;6109824;23;20013;-79
2022/10/22 08:32:04;;;;;;;13.23;7.80;;;;;;;;;;6108837;23;20029;-79
2022/10/22 08:34:30;;;;;;;7.43;6.50;;;;;;;;;;6110035;23;20065;-79
2022/10/22 08:36:57;;;;;;;10.75;6.95;;;;;;;;;;6110403;23;20006;-81
2022/10/22 08:39:23;;;;;;;10.38;6.32;;;;;;;;;;6109261;23;20006;-79
2022/10/22 08:41:58;;;;;;;12.60;6.47;;;;;;;;;;6110374;23;20010;-79
2022/10/22 08:44:43;;;;;;;6.97;5.40;;;;;;;;;;6108694;23;20571;-79
2022/10/22 08:47:09;;;;;;;6.03;5.43;;;;;;;;;;6084016;23;20006;-78
2022/10/22 08:49:38;;;;;;;6.43;5.25;;;;;;;;;;6110101;23;20006;-79
2022/10/22 08:52:04;;;;;;;8.00;6.20;;;;;;;;;;6109627;23;20151;-79
2022/10/22 08:54:50;;;;;;;9.43;6.60;;;;;;;;;;6081214;23;20017;-79
2022/10/22 08:57:25;;;;;;;7.32;5.85;;;;;;;;;;6109701;23;20001;-79
2022/10/22 08:59:54;;;;;;;9.15;5.50;;;;;;;;;;6109477;23;20315;-78
2022/10/22 09:02:47;;;;;;;5.22;4.70;;;;;;;;;;6108814;23;20033;-78
2022/10/22 09:05:13;;;;;;;8.43;5.90;;;;;;;;;;6077387;23;20730;-78
2022/10/22 09:07:41;;;;;;;11.77;8.63;;;;;;;;;;6106158;23;20006;-77
2022/10/22 09:10:09;;;;;;;13.50;7.78;;;;;;;;;;6108385;23;20025;-77
2022/10/22 09:12:35;;;;;;;10.32;7.47;;;;;;;;;;6108579;23;20068;-80
2022/10/22 09:15:01;;;;;;;10.32;6.05;;;;;;;;;;6108523;23;20679;-77
2022/10/22 09:17:27;;;;;;;6.90;5.57;;;;;;;;;;6108926;23;20005;-78
2022/10/22 09:20:02;;;;;;;7.45;5.60;;;;;;;;;;6110483;23;20017;-78
2022/10/22 09:22:42;;;;;;;8.88;5.57;;;;;;;;;;6109846;23;20041;-79
2022/10/22 09:25:26;;;;;;;7.68;5.38;;;;;;;;;;6109847;23;20442;-78
2022/10/22 09:27:57;;;;;;;7.78;5.57;;;;;;;;;;6110011;23;20415;-78
2022/10/22 09:30:24;;;;;;;13.85;5.88;;;;;;;;;;6084938;23;20049;-78
2022/10/22 09:33:05;;;;;;;9.15;5.88;;;;;;;;;;6108663;23;20006;-78
2022/10/22 09:35:35;;;;;;;10.18;6.78;;;;;;;;;;6109338;23;20021;-79
2022/10/22 09:38:06;;;;;;;10.20;5.95;;;;;;;;;;6110450;23;20002;-80
2022/10/22 09:40:41;;;;;;;7.18;5.78;;;;;;;;;;6110033;23;20002;-78
2022/10/22 09:43:09;;;;;;;6.75;5.50;;;;;;;;;;6108064;23;19998;-78
2022/10/22 09:45:35;;;;;;;7.47;5.80;;;;;;;;;;6110229;23;20041;-78
2022/10/22 09:48:20;;;;;;;9.07;5.43;;;;;;;;;;6108120;23;20006;-75
2022/10/22 09:50:47;;;;;;;6.05;5.07;;;;;;;;;;6109855;23;20049;-78
2022/10/22 09:53:16;;;;;;;5.90;5.30;;;;;;;;;;6109760;23;20006;-77
2022/10/22 09:55:43;;;;;;;5.95;4.97;;;;;;;;;;6109773;23;20010;-78
2022/10/22 09:58:13;;;;;;;7.38;5.35;;;;;;;;;;6107709;23;20005;-79
2022/10/22 10:00:40;;;;;;;5.97;5.03;;;;;;;;;;6109753;23;20084;-77
2022/10/22 10:03:06;;;;;;;7.13;5.55;;;;;;;;;;6110450;23;20327;-78
2022/10/22 10:05:34;;;;;;;7.13;5.55;;;;;;;;;;6109664;23;20494;-77
2022/10/22 10:08:26;;;;;;;8.68;5.93;;;;;;;;;;6110148;23;20005;-77
2022/10/22 10:10:52;;;;;;;6.93;5.35;;;;;;;;;;6103414;23;20006;-77
2022/10/22 10:13:21;;;;;;;6.70;5.40;;;;;;;;;;6109550;23;20006;-78
2022/10/22 10:16:03;;;;;;;7.95;5.45;;;;;;;;;;6109678;23;20041;-78
2022/10/22 10:18:32;;;;;;;7.72;5.20;;;;;;;;;;6109676;23;20029;-77
2022/10/22 10:21:04;;;;;;;5.78;5.15;;;;;;;;;;6110003;23;20014;-78
2022/10/22 10:23:41;;;;;;;5.63;5.03;;;;;;;;;;6107926;23;20158;-77
2022/10/22 10:26:14;;;;;;;8.23;5.88;;;;;;;;;;6109242;23;20728;-78
2022/10/22 10:28:40;;;;;;;10.13;6.53;;;;;;;;;;6109285;23;20106;-78
2022/10/22 10:31:18;;;;;;;7.20;5.05;;;;;;;;;;6110038;23;20030;-77
2022/10/22 10:33:44;;;;;;;7.10;5.38;;;;;;;;;;6109748;23;20033;-78
2022/10/22 10:36:16;;;;;;;6.82;5.70;;;;;;;;;;6108790;23;20010;-79
2022/10/22 10:38:43;;;;;;;5.72;5.05;;;;;;;;;;6108520;23;20010;-79
2022/10/22 10:41:21;;;;;;;8.73;5.22;;;;;;;;;;6110141;23;20034;-81
2022/10/22 10:43:53;;;;;;;7.30;4.85;;;;;;;;;;6107510;23;20006;-79
2022/10/22 10:46:22;;;;;;;6.10;5.10;;;;;;;;;;6109064;23;20010;-77
2022/10/22 10:48:50;;;;;;;7.07;5.18;;;;;;;;;;6107201;23;20040;-76
2022/10/22 10:51:16;;;;;;;8.52;4.85;;;;;;;;;;6110327;23;20002;-78
2022/10/22 10:53:45;;;;;;;6.38;5.10;;;;;;;;;;6109768;23;20955;-78
2022/10/22 10:56:17;;;;;;;5.90;5.30;;;;;;;;;;6108846;23;20004;-76
2022/10/22 10:58:52;;;;;;;7.80;5.47;;;;;;;;;;6108888;23;20061;-77
2022/10/22 11:01:23;;;;;;;6.57;5.18;;;;;;;;;;6110340;23;20099;-79
2022/10/22 11:03:52;;;;;;;7.32;5.20;;;;;;;;;;6107573;23;20009;-78
2022/10/22 11:06:19;;;;;;;5.45;4.78;;;;;;;;;;6109160;23;20343;-77
2022/10/22 11:08:57;;;;;;;6.75;5.32;;;;;;;;;;6109156;23;20006;-77
2022/10/22 11:11:30;;;;;;;9.40;5.55;;;;;;;;;;6108997;23;20033;-77
2022/10/22 11:13:58;;;;;;;6.10;4.80;;;;;;;;;;6107466;23;20458;-77
2022/10/22 11:16:35;;;;;;;8.88;5.30;;;;;;;;;;6111077;23;20157;-78
2022/10/22 11:19:05;;;;;;;5.60;4.97;;;;;;;;;;6111008;23;20006;-79
2022/10/22 11:21:40;;;;;;;7.28;5.38;;;;;;;;;;6110545;23;20064;-77
2022/10/22 11:24:18;;;;;;;7.75;5.65;;;;;;;;;;6109511;23;20462;-77
2022/10/22 11:26:46;;;;;;;6.65;5.90;;;;;;;;;;6109015;23;20490;-77
2022/10/22 11:29:15;;;;;;;8.80;6.05;;;;;;;;;;6108991;23;20021;-77
2022/10/22 11:31:43;;;;;;;6.75;5.45;;;;;;;;;;6106885;23;20522;-77
2022/10/22 11:34:16;;;;;;;7.03;5.38;;;;;;;;;;6109212;23;20478;-77
2022/10/22 11:36:43;;;;;;;8.23;5.55;;;;;;;;;;6083147;23;20092;-78
2022/10/22 11:39:28;;;;;;;8.07;6.05;;;;;;;;;;6109354;23;20066;-78
2022/10/22 11:41:54;;;;;;;7.35;5.57;;;;;;;;;;6110771;23;20002;-77
2022/10/22 11:44:24;;;;;;;7.80;5.30;;;;;;;;;;6106297;23;20005;-78
2022/10/22 11:46:53;;;;;;;5.72;5.03;;;;;;;;;;6109995;23;20364;-78
2022/10/22 11:49:24;;;;;;;6.65;5.47;;;;;;;;;;6110786;23;20010;-78
2022/10/22 11:51:50;;;;;;;7.20;5.10;;;;;;;;;;6110331;23;20368;-77
2022/10/22 11:54:41;;;;;;;5.70;4.88;;;;;;;;;;6108377;23;20380;-78
2022/10/22 11:57:16;;;;;;;6.40;5.10;;;;;;;;;;6110356;23;20111;-75
2022/10/22 11:59:42;;;;;;;6.65;5.00;;;;;;;;;;6110662;23;20017;-79
2022/10/22 12:02:27;;;;;;;6.00;5.35;;;;;;;;;;6110554;23;20061;-78
2022/10/22 12:04:55;;;;;;;6.38;5.05;;;;;;;;;;6108586;23;20369;-78
2022/10/22 12:07:40;;;;;;;5.22;4.72;;;;;;;;;;6110336;23;20183;-77
2022/10/22 12:10:16;;;;;;;6.25;5.28;;;;;;;;;;6084931;23;20010;-78
2022/10/22 12:12:42;;;;;;;8.80;5.93;;;;;;;;;;6110659;23;20008;-78
2022/10/22 12:15:23;;;;;;;6.32;5.18;;;;;;;;;;6108089;23;20021;-78
2022/10/22 12:17:49;;;;;;;6.82;5.75;;;;;;;;;;6109141;23;20006;-75
2022/10/22 12:20:16;;;;;;;6.25;5.45;;;;;;;;;;6110854;23;20281;-79
2022/10/22 12:22:43;;;;;;;6.15;5.30;;;;;;;;;;6110875;23;20005;-79
2022/10/22 12:25:15;;;;;;;7.22;5.28;;;;;;;;;;6108040;23;20014;-78
2022/10/22 12:27:41;;;;;;;6.18;5.57;;;;;;;;;;6108661;23;20351;-79
2022/10/22 12:30:18;;;;;;;7.35;5.82;;;;;;;;;;6085282;23;20583;-79
2022/10/22 12:32:45;;;;;;;7.60;6.90;;;;;;;;;;6110595;23;20460;-79
2022/10/22 12:35:15;;;;;;;7.40;6.70;;;;;;;;;;6108453;23;20620;-79
2022/10/22 12:37:41;;;;;;;6.30;5.53;;;;;;;;;;6109317;23;20081;-78
2022/10/22 12:40:21;;;;;;;7.20;5.25;;;;;;;;;;6109931;23;20017;-78
2022/10/22 12:42:51;;;;;;;6.93;5.30;;;;;;;;;;6106176;23;20159;-78
2022/10/22 12:45:17;;;;;;;8.10;5.60;;;;;;;;;;6111259;23;20506;-78
2022/10/22 12:47:47;;;;;;;7.28;5.72;;;;;;;;;;6109736;23;20009;-78
2022/10/22 12:50:21;;;;;;;8.05;6.13;;;;;;;;;;6108396;23;20013;-78
2022/10/22 12:52:47;;;;;;;6.32;5.40;;;;;;;;;;6110124;23;20017;-78
2022/10/22 12:55:17;;;;;;;6.80;5.43;;;;;;;;;;6110470;23;20507;-78
2022/10/22 12:58:03;;;;;;;;;;;;;;;;;;;;;
2022/10/22 13:00:40;;;;;;;9.00;6.13;;;;;;;;;;6108835;23;20026;-81
2022/10/22 13:03:06;;;;;;;7.40;6.15;;;;;;;;;;6108416;23;20622;-80
2022/10/22 13:05:37;;;;;;;9.00;6.03;;;;;;;;;;6084368;23;20024;-80
2022/10/22 13:08:11;;;;;;;6.57;5.55;;;;;;;;;;6110921;23;20017;-81
2022/10/22 13:10:39;;;;;;;7.65;5.95;;;;;;;;;;6083478;23;20435;-81
2022/10/22 13:13:25;;;;;;;8.35;5.35;;;;;;;;;;6084489;23;20621;-82
2022/10/22 13:16:11;;;;;;;5.70;5.07;;;;;;;;;;6108200;23;20116;-81
2022/10/22 13:18:37;;;;;;;9.00;6.65;;;;;;;;;;6110227;23;20076;-82
2022/10/22 13:21:05;;;;;;;6.60;5.90;;;;;;;;;;6083894;23;20006;-85
2022/10/22 13:23:32;;;;;;;6.90;5.97;;;;;;;;;;6109434;23;20033;-81
2022/10/22 13:26:17;;;;;;;6.82;5.70;;;;;;;;;;6108573;23;20006;-82
2022/10/22 13:28:49;;;;;;;8.50;5.68;;;;;;;;;;6107837;23;20661;-82
2022/10/22 13:31:17;;;;;;;5.60;4.95;;;;;;;;;;6110346;23;20101;-82
2022/10/22 13:33:44;;;;;;;5.70;4.97;;;;;;;;;;6110245;23;20065;-81
2022/10/22 13:36:17;;;;;;;6.70;5.30;;;;;;;;;;6083019;23;20021;-81
2022/10/22 13:38:45;;;;;;;6.68;5.35;;;;;;;;;;6081821;23;20006;-80
2022/10/22 13:41:33;;;;;;;7.97;5.20;;;;;;;;;;6083693;23;20014;-79
2022/10/22 13:43:59;;;;;;;5.72;4.85;;;;;;;;;;6082687;23;20010;-79
2022/10/22 13:46:28;;;;;;;6.75;5.15;;;;;;;;;;6110192;23;20009;-80
2022/10/22 13:48:56;;;;;;;6.18;5.53;;;;;;;;;;6109994;23;20544;-80
2022/10/22 13:51:26;;;;;;;6.75;5.75;;;;;;;;;;6083751;23;20009;-82
2022/10/22 13:53:55;;;;;;;6.63;5.53;;;;;;;;;;6108048;23;20005;-81
2022/10/22 13:56:22;;;;;;;7.43;5.57;;;;;;;;;;6083115;23;20018;-79
2022/10/22 13:58:49;;;;;;;5.93;5.32;;;;;;;;;;6082977;23;20025;-78
2022/10/22 14:01:23;;;;;;;5.82;5.22;;;;;;;;;;6084081;23;20014;-80
2022/10/22 14:03:50;;;;;;;7.78;5.40;;;;;;;;;;6106952;23;20010;-82
2022/10/22 14:06:19;;;;;;;5.47;4.97;;;;;;;;;;6108562;23;20348;-83
2022/10/22 14:08:47;;;;;;;7.22;5.43;;;;;;;;;;6083729;23;20331;-78
2022/10/22 14:11:13;;;;;;;6.70;5.60;;;;;;;;;;6083527;23;20014;-79
2022/10/22 14:13:40;;;;;;;7.30;5.50;;;;;;;;;;6109423;23;20010;-79
2022/10/22 14:16:07;;;;;;;6.47;5.28;;;;;;;;;;6109551;23;20018;-82
2022/10/22 14:18:34;;;;;;;5.82;5.22;;;;;;;;;;6082118;23;20042;-80
2022/10/22 14:21:06;;;;;;;9.68;5.60;;;;;;;;;;6083354;23;20053;-79
2022/10/22 14:23:32;;;;;;;;;;;;;;;;;;6110198;23;20585;-78
2022/10/22 14:25:59;;;;;;;10.25;6.00;;;;;;;;;;6108875;23;19908;-78
2022/10/22 14:28:25;;;;;;;6.63;5.55;;;;;;;;;;6109463;23;20388;-79
2022/10/22 14:30:52;;;;;;;9.15;5.22;;;;;;;;;;6109384;23;20128;-79
2022/10/22 14:33:20;;;;;;;6.18;5.30;;;;;;;;;;6107612;23;20049;-78
2022/10/22 14:35:47;;;;;;;6.25;5.65;;;;;;;;;;6109656;23;20045;-79
2022/10/22 14:38:14;;;;;;;9.50;5.80;;;;;;;;;;6108697;23;20073;-79
2022/10/22 14:40:41;;;;;;;6.78;6.05;;;;;;;;;;6109915;23;20010;-79
2022/10/22 14:43:18;;;;;;;5.70;5.20;;;;;;;;;;6106226;23;20009;-79
2022/10/22 14:45:44;;;;;;;6.82;5.13;;;;;;;;;;6110046;23;20604;-79
2022/10/22 14:48:10;;;;;;;6.38;5.30;;;;;;;;;;6108792;23;20001;-81
2022/10/22 14:50:36;;;;;;;5.78;4.90;;;;;;;;;;6084948;23;20259;-80
2022/10/22 14:53:02;;;;;;;6.32;5.50;;;;;;;;;;6111440;23;20009;-79
2022/10/22 14:55:28;;;;;;;6.35;5.43;;;;;;;;;;6110964;23;20509;-80